createdAt,value
2022-12-18T00:01:21.152Z,8.70
2022-12-18T00:03:48.250Z,8.65
2022-12-18T00:06:15.613Z,8.50
2022-12-18T00:08:43.214Z,9.35
2022-12-18T00:11:13.103Z,8.73
2022-12-18T00:13:40.078Z,9.15
2022-12-18T00:16:09.673Z,9.32
2022-12-18T00:18:36.473Z,9.32
2022-12-18T00:21:06.094Z,8.00
2022-12-18T00:23:33.575Z,8.38
2022-12-18T00:26:01.597Z,8.85
2022-12-18T00:28:28.100Z,7.82
2022-12-18T00:31:05.641Z,8.05
2022-12-18T00:33:32.401Z,9.52
2022-12-18T00:36:03.716Z,7.70
2022-12-18T00:38:30.218Z,8.05
2022-12-18T00:40:56.774Z,9.60
2022-12-18T00:43:23.262Z,10.07
2022-12-18T00:45:50.117Z,8.73
2022-12-18T00:48:16.837Z,8.80
2022-12-18T00:50:43.369Z,8.63
2022-12-18T00:53:12.437Z,8.77
2022-12-18T00:55:40.747Z,9.55
2022-12-18T00:58:07.516Z,8.30
2022-12-18T01:00:34.307Z,8.68
2022-12-18T01:03:00.915Z,9.05
2022-12-18T01:05:28.182Z,8.57
2022-12-18T01:07:55.784Z,9.60
2022-12-18T01:10:22.216Z,9.65
2022-12-18T01:12:48.778Z,8.60
2022-12-18T01:15:15.901Z,7.82
2022-12-18T01:17:43.117Z,9.70
2022-12-18T01:20:11.915Z,9.40
2022-12-18T01:22:38.958Z,8.63
2022-12-18T01:25:06.565Z,8.93
2022-12-18T01:27:34.486Z,9.27
2022-12-18T01:30:01.002Z,8.60
2022-12-18T01:32:27.444Z,8.65
2022-12-18T01:34:53.847Z,9.23
2022-12-18T01:37:20.318Z,8.48
2022-12-18T01:39:46.860Z,8.60
2022-12-18T01:42:15.708Z,8.50
2022-12-18T01:44:57.235Z,9.18
2022-12-18T01:47:42.455Z,8.52
2022-12-18T01:50:21.033Z,8.95
2022-12-18T01:53:12.261Z,9.65
2022-12-18T01:55:50.335Z,9.10
2022-12-18T01:58:17.877Z,9.35
2022-12-18T02:00:44.417Z,8.65
2022-12-18T02:03:11.519Z,8.80
2022-12-18T02:06:08.665Z,10.43
2022-12-18T02:08:40.322Z,9.05
2022-12-18T02:11:57.615Z,8.88
2022-12-18T02:14:39.234Z,8.38
2022-12-18T02:17:17.581Z,9.38
2022-12-18T02:19:47.026Z,9.30
2022-12-18T02:22:34.013Z,9.73
2022-12-18T02:25:20.709Z,9.50
2022-12-18T02:27:48.261Z,8.60
2022-12-18T02:30:15.305Z,10.27
2022-12-18T02:32:45.502Z,8.80
2022-12-18T02:35:16.390Z,9.02
2022-12-18T02:37:45.779Z,9.13
2022-12-18T02:40:14.809Z,11.15
2022-12-18T02:42:41.316Z,9.98
2022-12-18T02:45:08.540Z,9.25
2022-12-18T02:47:39.186Z,8.52
2022-12-18T02:50:14.518Z,10.63
2022-12-18T02:52:54.346Z,10.02
2022-12-18T02:55:48.384Z,9.65
2022-12-18T02:58:42.401Z,9.95
2022-12-18T03:01:08.807Z,9.43
2022-12-18T03:04:02.966Z,9.55
2022-12-18T03:06:38.552Z,9.60
2022-12-18T03:09:17.469Z,8.93
2022-12-18T03:12:08.588Z,9.50
2022-12-18T03:14:37.213Z,10.75
2022-12-18T03:17:06.828Z,9.27
2022-12-18T03:19:34.250Z,9.98
2022-12-18T03:22:03.816Z,9.70
2022-12-18T03:24:33.146Z,9.55
2022-12-18T03:27:03.220Z,9.38
2022-12-18T03:29:36.873Z,9.80
2022-12-18T03:32:08.840Z,9.55
2022-12-18T03:34:38.455Z,10.65
2022-12-18T03:37:06.710Z,9.25
2022-12-18T03:39:34.641Z,10.85
2022-12-18T03:42:15.997Z,9.55
2022-12-18T03:44:51.712Z,9.40
2022-12-18T03:47:28.410Z,8.90
2022-12-18T03:50:19.508Z,8.60
2022-12-18T03:52:48.963Z,11.13
2022-12-18T03:55:16.282Z,9.68
2022-12-18T03:57:44.301Z,10.98
2022-12-18T04:00:14.138Z,10.35
2022-12-18T04:02:45.758Z,10.95
2022-12-18T04:05:14.044Z,9.25
2022-12-18T04:07:41.408Z,11.07
2022-12-18T04:10:13.026Z,9.48
2022-12-18T04:12:39.473Z,10.15
2022-12-18T04:15:06.831Z,9.40
2022-12-18T04:17:33.308Z,9.93
2022-12-18T04:19:59.759Z,9.88
2022-12-18T04:22:26.487Z,10.18
2022-12-18T04:24:52.922Z,10.60
2022-12-18T04:27:19.719Z,10.38
2022-12-18T04:29:46.148Z,10.70
2022-12-18T04:32:12.590Z,9.18
2022-12-18T04:34:39.014Z,10.50
2022-12-18T04:37:05.464Z,9.82
2022-12-18T04:39:31.909Z,10.35
2022-12-18T04:42:01.506Z,11.07
2022-12-18T04:44:27.988Z,10.13
2022-12-18T04:46:54.561Z,9.38
2022-12-18T04:49:21.073Z,10.60
2022-12-18T04:51:47.546Z,9.48
2022-12-18T04:54:14.363Z,10.27
2022-12-18T04:56:40.921Z,11.15
2022-12-18T04:59:07.433Z,10.05
2022-12-18T05:01:36.880Z,10.63
2022-12-18T05:04:04.075Z,9.50
2022-12-18T05:06:30.595Z,10.77
2022-12-18T05:08:57.159Z,9.43
2022-12-18T05:11:23.606Z,10.98
2022-12-18T05:13:50.306Z,10.70
2022-12-18T05:16:17.156Z,10.50
2022-12-18T05:18:43.814Z,10.48
2022-12-18T05:21:10.408Z,11.00
2022-12-18T05:23:37.854Z,8.93
2022-12-18T05:26:07.064Z,9.50
2022-12-18T05:28:34.364Z,9.50
2022-12-18T05:31:03.230Z,10.32
2022-12-18T05:33:32.711Z,10.07
2022-12-18T05:36:01.969Z,11.30
2022-12-18T05:38:31.260Z,10.52
2022-12-18T05:40:58.174Z,10.27
2022-12-18T05:43:25.512Z,10.18
2022-12-18T05:45:52.795Z,12.18
2022-12-18T05:48:20.233Z,9.95
2022-12-18T05:50:48.884Z,10.27
2022-12-18T05:53:17.524Z,8.45
2022-12-18T05:55:44.923Z,9.75
2022-12-18T05:58:13.157Z,9.90
2022-12-18T06:00:42.191Z,10.13
2022-12-18T06:03:11.036Z,9.00
2022-12-18T06:05:39.670Z,9.60
2022-12-18T06:08:06.589Z,9.68
2022-12-18T06:10:33.551Z,10.70
2022-12-18T06:13:00.208Z,8.10
2022-12-18T06:15:26.667Z,8.98
2022-12-18T06:17:53.152Z,9.55
2022-12-18T06:20:20.067Z,9.18
2022-12-18T06:22:46.697Z,8.63
2022-12-18T06:25:13.298Z,9.40
2022-12-18T06:27:39.819Z,8.55
2022-12-18T06:30:07.131Z,9.02
2022-12-18T06:32:33.706Z,9.48
2022-12-18T06:35:00.303Z,8.95
2022-12-18T06:37:27.200Z,9.65
2022-12-18T06:39:54.847Z,9.20
2022-12-18T06:42:24.001Z,7.55
2022-12-18T06:44:51.238Z,7.15
2022-12-18T06:47:17.688Z,7.75
2022-12-18T06:49:44.404Z,7.93
2022-12-18T06:52:10.850Z,8.15
2022-12-18T06:54:37.347Z,7.88
2022-12-18T06:57:03.905Z,8.32
2022-12-18T06:59:30.357Z,6.47
2022-12-18T07:01:56.968Z,7.97
2022-12-18T07:04:28.064Z,7.80
2022-12-18T07:06:54.535Z,7.53
2022-12-18T07:09:21.237Z,7.55
2022-12-18T07:11:47.698Z,7.82
2022-12-18T07:14:14.161Z,7.72
2022-12-18T07:16:41.797Z,7.03
2022-12-18T07:19:08.330Z,8.40
2022-12-18T07:21:34.844Z,7.20
2022-12-18T07:24:01.434Z,6.78
2022-12-18T07:26:27.925Z,7.30
2022-12-18T07:28:58.450Z,7.57
2022-12-18T07:31:25.998Z,7.32
2022-12-18T07:33:53.270Z,7.60
2022-12-18T07:36:20.041Z,7.13
2022-12-18T07:38:49.012Z,6.57
2022-12-18T07:41:16.313Z,7.60
2022-12-18T07:43:43.622Z,6.50
2022-12-18T07:46:13.267Z,6.88
2022-12-18T07:48:40.476Z,7.50
2022-12-18T07:51:08.189Z,7.22
2022-12-18T07:53:36.425Z,6.90
2022-12-18T07:58:54.580Z,6.15
2022-12-18T08:01:21.357Z,6.97
2022-12-18T08:03:48.023Z,6.25
2022-12-18T08:06:14.885Z,6.75
2022-12-18T08:08:43.180Z,6.28
2022-12-18T08:11:09.652Z,7.00
2022-12-18T08:13:36.350Z,6.85
2022-12-18T08:16:06.820Z,6.32
2022-12-18T08:18:34.474Z,6.78
2022-12-18T08:21:14.437Z,6.57
2022-12-18T08:23:43.377Z,6.53
2022-12-18T08:26:14.251Z,6.25
2022-12-18T08:28:41.401Z,6.30
2022-12-18T08:31:08.896Z,6.63
2022-12-18T08:33:38.244Z,6.10
2022-12-18T08:36:05.980Z,9.13
2022-12-18T08:38:33.694Z,6.40
2022-12-18T08:41:06.185Z,6.28
2022-12-18T08:43:51.167Z,6.53
2022-12-18T08:46:19.281Z,5.88
2022-12-18T08:48:46.110Z,7.18
2022-12-18T08:51:12.867Z,7.90
2022-12-18T08:53:39.975Z,7.28
2022-12-18T08:56:06.946Z,6.55
2022-12-18T08:58:33.422Z,5.60
2022-12-18T09:01:05.164Z,6.63
2022-12-18T09:03:32.199Z,7.40
2022-12-18T09:05:58.712Z,6.50
2022-12-18T09:08:25.228Z,6.68
2022-12-18T09:10:52.400Z,5.55
2022-12-18T09:13:39.606Z,6.47
2022-12-18T09:16:06.487Z,6.45
2022-12-18T09:18:32.953Z,6.80
2022-12-18T09:20:59.393Z,6.68
2022-12-18T09:23:25.913Z,6.60
2022-12-18T09:25:52.384Z,6.18
2022-12-18T09:28:20.127Z,7.47
2022-12-18T09:30:49.798Z,6.05
2022-12-18T09:33:17.293Z,6.97
2022-12-18T09:35:45.413Z,6.72
2022-12-18T09:38:17.838Z,6.10
2022-12-18T09:40:48.264Z,5.78
2022-12-18T09:43:19.785Z,5.97
2022-12-18T09:45:52.629Z,7.68
2022-12-18T09:51:29.703Z,5.40
2022-12-18T09:54:05.343Z,6.18
2022-12-18T09:56:38.480Z,7.00
2022-12-18T09:59:05.695Z,6.35
2022-12-18T10:01:40.215Z,7.18
2022-12-18T10:04:10.380Z,6.40
2022-12-18T10:06:43.865Z,6.28
2022-12-18T10:09:31.096Z,5.55
2022-12-18T10:12:19.864Z,6.82
2022-12-18T10:15:05.561Z,7.53
2022-12-18T10:18:05.961Z,6.25
2022-12-18T10:20:42.107Z,5.18
2022-12-18T10:23:33.089Z,6.10
2022-12-18T10:26:04.439Z,6.45
2022-12-18T10:28:33.701Z,6.13
2022-12-18T10:31:00.328Z,6.80
2022-12-18T10:33:31.140Z,5.70
2022-12-18T10:35:57.598Z,5.85
2022-12-18T10:38:32.805Z,5.78
2022-12-18T10:41:18.390Z,6.47
2022-12-18T10:43:45.157Z,4.97
2022-12-18T10:46:11.635Z,6.13
2022-12-18T10:48:48.130Z,5.30
2022-12-18T10:53:54.228Z,6.50
2022-12-18T10:54:20.535Z,6.38
2022-12-18T10:56:47.209Z,5.78
2022-12-18T10:59:18.472Z,5.60
2022-12-18T11:01:56.551Z,6.18
2022-12-18T11:04:31.875Z,5.65
2022-12-18T11:07:02.426Z,5.63
2022-12-18T11:09:34.579Z,5.70
2022-12-18T11:12:15.662Z,5.37
2022-12-18T11:14:46.575Z,5.75
2022-12-18T11:17:25.305Z,5.35
2022-12-18T11:20:00.365Z,5.95
2022-12-18T11:22:28.837Z,5.53
2022-12-18T11:27:58.886Z,6.28
2022-12-18T11:30:36.952Z,5.88
2022-12-18T11:33:11.236Z,6.55
2022-12-18T11:35:50.332Z,5.82
2022-12-18T11:38:27.593Z,5.57
2022-12-18T11:40:56.732Z,5.43
2022-12-18T11:43:30.564Z,5.40
2022-12-18T11:46:17.649Z,5.85
2022-12-18T11:48:52.005Z,5.75
2022-12-18T11:51:42.810Z,5.30
2022-12-18T11:54:14.623Z,5.93
2022-12-18T11:57:30.346Z,5.15
2022-12-18T12:00:02.778Z,5.40
2022-12-18T12:02:49.522Z,6.28
2022-12-18T12:05:34.858Z,5.80
2022-12-18T12:08:13.445Z,6.07
2022-12-18T12:10:57.135Z,5.53
2022-12-18T12:13:41.034Z,5.53
2022-12-18T12:16:09.417Z,5.97
2022-12-18T12:18:35.951Z,6.18
2022-12-18T12:21:24.368Z,5.50
2022-12-18T12:24:00.140Z,5.75
2022-12-18T12:26:52.440Z,6.43
2022-12-18T12:29:28.119Z,6.07
2022-12-18T12:32:21.698Z,5.55
2022-12-18T12:35:09.883Z,6.50
2022-12-18T12:38:13.994Z,5.50
2022-12-18T12:40:53.880Z,5.65
2022-12-18T12:43:49.600Z,5.95
2022-12-18T12:46:20.924Z,5.65
2022-12-18T12:48:59.060Z,5.88
2022-12-18T12:51:37.668Z,5.95
2022-12-18T12:54:07.602Z,5.35
2022-12-18T12:56:43.296Z,5.65
2022-12-18T12:59:23.675Z,5.97
2022-12-18T13:02:14.736Z,6.03
2022-12-18T13:04:53.816Z,5.60
2022-12-18T13:07:29.332Z,6.65
2022-12-18T13:10:20.650Z,5.97
2022-12-18T13:12:59.413Z,6.30
2022-12-18T13:15:44.792Z,5.28
2022-12-18T13:18:22.337Z,5.35
2022-12-18T13:21:04.982Z,5.57
2022-12-18T13:23:39.916Z,6.07
2022-12-18T13:26:28.992Z,5.70
2022-12-18T13:28:58.172Z,5.38
2022-12-18T13:31:30.975Z,5.97
2022-12-18T13:34:26.130Z,7.72
2022-12-18T13:36:55.867Z,7.25
2022-12-18T13:39:31.413Z,6.07
2022-12-18T13:42:07.047Z,5.93
2022-12-18T13:44:42.886Z,6.15
2022-12-18T13:47:39.052Z,5.75
2022-12-18T13:50:30.941Z,5.88
2022-12-18T13:53:01.944Z,6.50
2022-12-18T13:55:28.484Z,6.00
2022-12-18T13:58:05.957Z,5.82
2022-12-18T14:00:32.704Z,6.05
2022-12-18T14:03:00.956Z,6.20
2022-12-18T14:05:33.471Z,6.38
2022-12-18T14:08:14.672Z,6.18
2022-12-18T14:10:47.704Z,6.68
2022-12-18T14:13:29.115Z,6.38
2022-12-18T14:15:57.144Z,5.78
2022-12-18T14:18:35.422Z,6.40
2022-12-18T14:21:04.913Z,6.20
2022-12-18T14:23:43.538Z,6.32
2022-12-18T14:26:30.696Z,6.18
2022-12-18T14:28:58.549Z,6.82
2022-12-18T14:31:32.731Z,5.57
2022-12-18T14:33:59.219Z,6.13
2022-12-18T14:36:28.009Z,6.68
2022-12-18T14:38:59.595Z,6.63
2022-12-18T14:41:27.691Z,7.18
2022-12-18T14:43:55.299Z,6.57
2022-12-18T14:46:36.757Z,6.70
2022-12-18T14:49:30.327Z,5.72
2022-12-18T14:52:02.586Z,6.18
2022-12-18T14:54:30.565Z,7.38
2022-12-18T14:57:30.569Z,6.85
2022-12-18T15:00:06.313Z,7.03
2022-12-18T15:02:36.878Z,7.03
2022-12-18T15:05:18.409Z,7.25
2022-12-18T15:07:56.338Z,6.30
2022-12-18T15:10:25.745Z,6.03
2022-12-18T15:13:00.623Z,6.70
2022-12-18T15:15:39.229Z,6.15
2022-12-18T15:18:08.592Z,7.28
2022-12-18T15:20:49.450Z,6.90
2022-12-18T15:23:18.604Z,6.30
2022-12-18T15:25:46.139Z,6.40
2022-12-18T15:28:23.955Z,9.45
2022-12-18T15:31:24.617Z,7.22
2022-12-18T15:33:53.154Z,9.95
2022-12-18T15:36:26.068Z,6.70
2022-12-18T15:38:58.911Z,7.13
2022-12-18T15:41:37.167Z,6.70
2022-12-18T15:44:22.318Z,8.35
2022-12-18T15:46:48.747Z,6.25
2022-12-18T15:49:15.190Z,7.80
2022-12-18T15:51:41.769Z,6.25
2022-12-18T15:54:14.269Z,6.30
2022-12-18T15:56:59.449Z,6.22
2022-12-18T15:59:25.939Z,7.32
2022-12-18T16:01:56.066Z,6.32
2022-12-18T16:04:23.501Z,5.13
2022-12-18T16:07:13.895Z,6.30
2022-12-18T16:09:37.797Z,7.03
2022-12-18T16:12:04.648Z,6.25
2022-12-18T16:14:32.493Z,7.35
2022-12-18T16:17:06.848Z,7.93
2022-12-18T16:19:33.353Z,6.75
2022-12-18T16:21:59.900Z,5.40
2022-12-18T16:24:29.285Z,6.63
2022-12-18T16:26:59.781Z,5.75
2022-12-18T16:29:28.557Z,5.60
2022-12-18T16:31:56.204Z,5.97
2022-12-18T16:34:24.963Z,5.93
2022-12-18T16:37:01.740Z,5.93
2022-12-18T16:39:32.827Z,5.60
2022-12-18T16:42:02.021Z,6.30
2022-12-18T16:44:33.442Z,5.15
2022-12-18T16:47:02.774Z,5.35
2022-12-18T16:49:29.805Z,5.22
2022-12-18T16:51:56.397Z,5.82
2022-12-18T16:54:23.039Z,6.25
2022-12-18T16:56:51.694Z,5.63
2022-12-18T16:59:18.758Z,4.90
2022-12-18T17:01:45.394Z,5.68
2022-12-18T17:04:12.029Z,5.80
2022-12-18T17:06:44.470Z,5.05
2022-12-18T17:09:16.221Z,5.55
2022-12-18T17:11:43.608Z,5.40
2022-12-18T17:14:15.773Z,5.05
2022-12-18T17:16:42.858Z,5.00
2022-12-18T17:19:15.187Z,5.05
2022-12-18T17:21:44.984Z,4.93
2022-12-18T17:24:11.859Z,5.45
2022-12-18T17:26:38.474Z,5.32
2022-12-18T17:29:05.266Z,4.85
2022-12-18T17:31:32.442Z,5.22
2022-12-18T17:33:59.172Z,5.65
2022-12-18T17:36:28.942Z,4.70
2022-12-18T17:38:57.633Z,4.55
2022-12-18T17:41:25.411Z,5.00
2022-12-18T17:43:59.794Z,4.20
2022-12-18T17:46:27.571Z,4.85
2022-12-18T17:48:58.827Z,5.60
2022-12-18T17:51:25.837Z,4.03
2022-12-18T17:53:52.476Z,4.20
2022-12-18T17:56:20.697Z,4.57
2022-12-18T17:58:48.066Z,4.15
2022-12-18T18:01:17.365Z,4.80
2022-12-18T18:03:45.688Z,4.60
2022-12-18T18:06:15.352Z,5.82
2022-12-18T18:08:42.188Z,4.07
2022-12-18T18:11:33.137Z,4.53
2022-12-18T18:14:02.757Z,4.35
2022-12-18T18:16:41.464Z,4.18
2022-12-18T18:19:11.433Z,4.43
2022-12-18T18:21:41.022Z,4.20
2022-12-18T18:24:09.436Z,4.50
2022-12-18T18:26:36.516Z,4.38
2022-12-18T18:29:05.216Z,4.72
2022-12-18T18:31:35.301Z,3.55
2022-12-18T18:34:08.213Z,4.63
2022-12-18T18:36:34.846Z,4.03
2022-12-18T18:39:02.165Z,4.45
2022-12-18T18:41:31.335Z,4.10
2022-12-18T18:43:58.431Z,3.83
2022-12-18T18:46:25.963Z,4.45
2022-12-18T18:48:52.715Z,4.07
2022-12-18T18:51:21.727Z,4.18
2022-12-18T18:53:49.797Z,4.40
2022-12-18T18:59:05.561Z,4.45
2022-12-18T19:01:32.391Z,4.30
2022-12-18T19:03:59.006Z,4.18
2022-12-18T19:06:28.498Z,5.28
2022-12-18T19:08:56.902Z,4.63
2022-12-18T19:11:43.946Z,4.20
2022-12-18T19:14:12.764Z,4.13
2022-12-18T19:16:39.741Z,4.22
2022-12-18T19:19:06.858Z,4.38
2022-12-18T19:21:34.879Z,4.22
2022-12-18T19:24:02.842Z,4.45
2022-12-18T19:26:30.201Z,4.75
2022-12-18T19:29:04.795Z,4.35
2022-12-18T19:31:35.586Z,4.72
2022-12-18T19:34:04.005Z,4.32
2022-12-18T19:36:32.040Z,4.07
2022-12-18T19:39:01.417Z,4.10
2022-12-18T19:41:32.982Z,4.75
2022-12-18T19:44:07.398Z,4.57
2022-12-18T19:46:34.673Z,4.78
2022-12-18T19:49:01.349Z,4.15
2022-12-18T19:51:29.764Z,4.10
2022-12-18T19:53:59.393Z,4.43
2022-12-18T19:56:30.830Z,4.22
2022-12-18T19:58:57.781Z,4.63
2022-12-18T20:01:25.815Z,4.00
2022-12-18T20:03:54.557Z,4.03
2022-12-18T20:06:45.414Z,3.97
2022-12-18T20:09:12.051Z,3.67
2022-12-18T20:11:40.256Z,4.28
2022-12-18T20:14:10.433Z,4.50
2022-12-18T20:16:37.080Z,4.25
2022-12-18T20:19:04.721Z,4.25
2022-12-18T20:21:31.792Z,4.47
2022-12-18T20:23:59.985Z,4.28
2022-12-18T20:26:27.015Z,4.05
2022-12-18T20:28:54.781Z,4.18
2022-12-18T20:31:21.604Z,4.18
2022-12-18T20:33:48.558Z,3.95
2022-12-18T20:36:21.407Z,4.10
2022-12-18T20:38:49.525Z,4.00
2022-12-18T20:41:20.043Z,4.20
2022-12-18T20:43:47.594Z,4.68
2022-12-18T20:46:16.524Z,4.13
2022-12-18T20:48:43.865Z,4.90
2022-12-18T20:51:15.720Z,4.50
2022-12-18T20:53:45.859Z,4.22
2022-12-18T20:56:21.549Z,4.22
2022-12-18T20:58:49.873Z,4.15
2022-12-18T21:01:20.047Z,4.22
2022-12-18T21:03:47.654Z,4.25
2022-12-18T21:06:15.928Z,4.75
2022-12-18T21:08:43.103Z,4.43
2022-12-18T21:11:32.312Z,3.72
2022-12-18T21:13:59.289Z,4.63
2022-12-18T21:16:26.052Z,4.38
2022-12-18T21:18:52.651Z,4.63
2022-12-18T21:21:26.227Z,4.72
2022-12-18T21:23:53.737Z,4.68
2022-12-18T21:26:22.836Z,4.65
2022-12-18T21:28:55.076Z,4.40
2022-12-18T21:31:23.526Z,4.97
2022-12-18T21:33:50.477Z,4.80
2022-12-18T21:36:18.969Z,4.47
2022-12-18T21:38:45.755Z,4.47
2022-12-18T21:41:37.472Z,5.38
2022-12-18T21:44:09.096Z,4.35
2022-12-18T21:46:38.236Z,4.68
2022-12-18T21:49:06.129Z,4.00
2022-12-18T21:51:33.439Z,5.47
2022-12-18T21:54:00.852Z,3.95
2022-12-18T21:56:51.933Z,4.93
2022-12-18T21:59:21.558Z,4.65
2022-12-18T22:01:49.684Z,4.70
2022-12-18T22:04:17.841Z,5.00
2022-12-18T22:06:45.943Z,4.93
2022-12-18T22:09:15.366Z,4.28
2022-12-18T22:11:42.138Z,4.85
2022-12-18T22:14:08.748Z,4.25
2022-12-18T22:16:35.692Z,4.97
2022-12-18T22:19:06.597Z,4.75
2022-12-18T22:21:38.661Z,4.45
2022-12-18T22:24:07.848Z,4.07
2022-12-18T22:26:40.073Z,4.95
2022-12-18T22:29:26.277Z,4.15
2022-12-18T22:31:52.797Z,5.07
2022-12-18T22:34:22.872Z,5.15
2022-12-18T22:36:50.702Z,5.32
2022-12-18T22:39:21.273Z,4.68
2022-12-18T22:41:48.321Z,5.00
2022-12-18T22:44:15.189Z,4.60
2022-12-18T22:46:49.303Z,4.65
2022-12-18T22:49:24.789Z,4.78
2022-12-18T22:51:52.116Z,6.15
2022-12-18T22:54:19.004Z,5.63
2022-12-18T22:56:45.610Z,5.03
2022-12-18T22:59:20.379Z,5.53
2022-12-18T23:01:47.667Z,4.30
2022-12-18T23:04:15.741Z,5.18
2022-12-18T23:06:43.090Z,4.90
2022-12-18T23:09:20.236Z,5.35
2022-12-18T23:11:47.842Z,4.80
2022-12-18T23:14:14.867Z,4.93
2022-12-18T23:16:41.341Z,5.38
2022-12-18T23:19:08.974Z,5.30
2022-12-18T23:21:35.743Z,5.35
2022-12-18T23:24:03.821Z,4.70
2022-12-18T23:26:30.435Z,5.35
2022-12-18T23:28:56.877Z,5.43
2022-12-18T23:31:32.755Z,5.78
2022-12-18T23:34:00.969Z,5.78
2022-12-18T23:36:28.124Z,4.95
2022-12-18T23:38:58.643Z,5.22
2022-12-18T23:41:27.420Z,5.72
2022-12-18T23:43:54.512Z,5.07
2022-12-18T23:46:23.815Z,5.53
2022-12-18T23:48:50.998Z,6.47
2022-12-18T23:51:19.622Z,4.82
2022-12-18T23:53:46.284Z,4.68
2022-12-18T23:56:13.858Z,6.15
2022-12-18T23:58:41.406Z,5.25
